createdAt,value
2023-11-15T00:01:58.684Z,9.90
2023-11-15T00:04:25.480Z,9.90
2023-11-15T00:06:52.984Z,9.90
2023-11-15T00:09:19.739Z,9.90
2023-11-15T00:11:46.624Z,10.00
2023-11-15T00:14:13.366Z,9.90
2023-11-15T00:16:40.073Z,9.90
2023-11-15T00:19:08.469Z,9.80
2023-11-15T00:21:35.868Z,9.80
2023-11-15T00:24:02.581Z,9.80
2023-11-15T00:26:30.481Z,9.90
2023-11-15T00:28:58.383Z,9.90
2023-11-15T00:31:25.441Z,9.90
2023-11-15T00:33:52.397Z,10.00
2023-11-15T00:36:20.898Z,10.00
2023-11-15T00:38:50.527Z,10.00
2023-11-15T00:41:17.593Z,10.00
2023-11-15T00:43:45.246Z,10.00
2023-11-15T00:46:14.685Z,10.00
2023-11-15T00:48:42.146Z,10.00
2023-11-15T00:51:09.028Z,10.10
2023-11-15T00:53:35.917Z,10.20
2023-11-15T00:56:03.020Z,10.10
2023-11-15T00:58:31.994Z,10.10
2023-11-15T01:01:00.997Z,10.00
2023-11-15T01:03:28.221Z,10.00
2023-11-15T01:05:56.278Z,10.10
2023-11-15T01:08:26.954Z,10.10
2023-11-15T01:10:54.474Z,10.00
2023-11-15T01:13:21.961Z,10.00
2023-11-15T01:15:49.610Z,10.10
2023-11-15T01:18:18.511Z,10.10
2023-11-15T01:20:45.352Z,10.00
2023-11-15T01:23:12.771Z,10.00
2023-11-15T01:25:40.116Z,9.90
2023-11-15T01:28:06.962Z,10.00
2023-11-15T01:30:33.734Z,9.90
2023-11-15T01:33:00.538Z,9.70
2023-11-15T01:35:27.519Z,9.70
2023-11-15T01:37:54.233Z,9.70
2023-11-15T01:40:21.740Z,9.80
2023-11-15T01:42:49.253Z,9.90
2023-11-15T01:45:17.079Z,9.90
2023-11-15T01:47:44.763Z,9.80
2023-11-15T01:50:14.498Z,9.70
2023-11-15T01:52:43.827Z,9.70
2023-11-15T01:55:19.764Z,9.70
2023-11-15T01:57:50.194Z,9.60
2023-11-15T02:00:17.558Z,9.70
2023-11-15T02:02:44.679Z,9.70
2023-11-15T02:05:11.560Z,9.90
2023-11-15T02:07:39.567Z,9.80
2023-11-15T02:10:08.798Z,9.70
2023-11-15T02:12:35.672Z,9.80
2023-11-15T02:15:02.483Z,9.70
2023-11-15T02:17:29.895Z,9.70
2023-11-15T02:19:57.690Z,9.70
2023-11-15T02:22:26.934Z,9.70
2023-11-15T02:24:53.611Z,9.60
2023-11-15T02:27:21.070Z,9.60
2023-11-15T02:29:47.842Z,9.60
2023-11-15T02:32:14.603Z,9.60
2023-11-15T02:34:41.413Z,9.60
2023-11-15T02:37:10.199Z,9.60
2023-11-15T02:39:36.937Z,9.60
2023-11-15T02:42:03.897Z,9.60
2023-11-15T02:44:30.626Z,9.60
2023-11-15T02:46:57.494Z,9.60
2023-11-15T02:49:24.218Z,9.60
2023-11-15T02:51:51.028Z,9.50
2023-11-15T02:54:17.846Z,9.50
2023-11-15T02:56:44.630Z,9.50
2023-11-15T02:59:11.358Z,9.60
2023-11-15T03:01:47.569Z,9.60
2023-11-15T03:04:14.396Z,9.60
2023-11-15T03:06:41.093Z,9.50
2023-11-15T03:09:09.033Z,9.40
2023-11-15T03:11:36.503Z,9.40
2023-11-15T03:14:03.974Z,9.30
2023-11-15T03:16:31.152Z,9.40
2023-11-15T03:18:57.990Z,9.40
2023-11-15T03:21:24.747Z,9.30
2023-11-15T03:23:51.514Z,9.20
2023-11-15T03:26:18.246Z,9.40
2023-11-15T03:28:45.149Z,9.40
2023-11-15T03:31:15.135Z,9.30
2023-11-15T03:33:44.511Z,9.20
2023-11-15T03:36:11.384Z,9.20
2023-11-15T03:38:38.520Z,9.10
2023-11-15T03:41:06.009Z,9.20
2023-11-15T03:43:32.762Z,9.30
2023-11-15T03:46:00.505Z,9.30
2023-11-15T03:48:28.356Z,9.40
2023-11-15T03:50:55.155Z,9.50
2023-11-15T03:53:22.800Z,9.50
2023-11-15T03:55:50.088Z,9.60
2023-11-15T03:58:16.796Z,9.70
2023-11-15T04:00:43.470Z,9.70
2023-11-15T04:03:10.389Z,9.60
2023-11-15T04:05:37.295Z,9.60
2023-11-15T04:08:04.300Z,9.70
2023-11-15T04:10:30.993Z,9.70
2023-11-15T04:12:57.993Z,9.70
2023-11-15T04:15:24.786Z,9.70
2023-11-15T04:17:51.566Z,9.70
2023-11-15T04:20:18.794Z,9.80
2023-11-15T04:22:45.549Z,9.70
2023-11-15T04:25:12.433Z,9.70
2023-11-15T04:27:39.158Z,9.70
2023-11-15T04:30:06.463Z,9.70
2023-11-15T04:32:33.206Z,9.70
2023-11-15T04:34:59.910Z,9.60
2023-11-15T04:37:26.633Z,9.60
2023-11-15T04:39:53.418Z,9.70
2023-11-15T04:42:21.278Z,9.70
2023-11-15T04:44:49.418Z,9.60
2023-11-15T04:47:16.220Z,9.60
2023-11-15T04:49:43.956Z,9.60
2023-11-15T04:52:10.637Z,9.60
2023-11-15T04:54:37.396Z,9.50
2023-11-15T04:57:04.601Z,9.60
2023-11-15T04:59:32.873Z,9.60
2023-11-15T05:01:59.941Z,9.70
2023-11-15T05:04:27.252Z,9.60
2023-11-15T05:06:55.302Z,9.70
2023-11-15T05:09:23.884Z,9.70
2023-11-15T05:11:50.742Z,9.70
2023-11-15T05:14:17.451Z,9.70
2023-11-15T05:16:44.949Z,9.60
2023-11-15T05:19:11.681Z,9.60
2023-11-15T05:21:38.440Z,9.60
2023-11-15T05:24:05.707Z,9.70
2023-11-15T05:26:32.436Z,9.70
2023-11-15T05:28:59.223Z,9.60
2023-11-15T05:31:25.940Z,9.60
2023-11-15T05:33:52.642Z,9.60
2023-11-15T05:36:19.295Z,9.60
2023-11-15T05:38:46.062Z,9.60
2023-11-15T05:41:12.738Z,9.70
2023-11-15T05:43:39.928Z,9.80
2023-11-15T05:46:06.684Z,9.80
2023-11-15T05:48:34.361Z,9.70
2023-11-15T05:51:02.878Z,9.70
2023-11-15T05:53:29.640Z,9.50
2023-11-15T05:55:56.393Z,9.50
2023-11-15T05:58:23.084Z,9.60
2023-11-15T06:00:49.873Z,9.50
2023-11-15T06:03:16.652Z,9.60
2023-11-15T06:05:43.892Z,9.60
2023-11-15T06:08:10.684Z,9.60
2023-11-15T06:10:37.476Z,9.70
2023-11-15T06:13:07.161Z,9.70
2023-11-15T06:15:34.081Z,9.70
2023-11-15T06:18:01.329Z,9.60
2023-11-15T06:20:30.842Z,9.50
2023-11-15T06:22:58.156Z,9.40
2023-11-15T06:25:25.092Z,9.50
2023-11-15T06:27:51.829Z,9.40
2023-11-15T06:30:18.692Z,9.40
2023-11-15T06:32:46.548Z,9.50
2023-11-15T06:35:19.468Z,9.60
2023-11-15T06:37:49.753Z,9.70
2023-11-15T06:40:17.757Z,9.70
2023-11-15T06:42:44.497Z,9.60
2023-11-15T06:45:13.575Z,9.80
2023-11-15T06:47:42.210Z,9.70
2023-11-15T06:50:09.549Z,9.70
2023-11-15T06:52:39.609Z,9.70
2023-11-15T06:55:12.255Z,9.70
2023-11-15T06:57:42.414Z,9.90
2023-11-15T07:00:10.719Z,9.90
2023-11-15T07:02:37.706Z,9.70
2023-11-15T07:05:06.841Z,9.80
2023-11-15T07:07:33.940Z,9.80
2023-11-15T07:10:00.761Z,9.70
2023-11-15T07:12:27.443Z,9.70
2023-11-15T07:14:54.363Z,9.70
2023-11-15T07:17:21.134Z,9.80
2023-11-15T07:19:49.101Z,10.00
2023-11-15T07:22:16.664Z,10.00
2023-11-15T07:24:44.282Z,10.00
2023-11-15T07:27:11.126Z,10.10
2023-11-15T07:29:38.952Z,10.10
2023-11-15T07:32:08.595Z,10.20
2023-11-15T07:34:35.357Z,10.20
2023-11-15T07:37:03.551Z,10.20
2023-11-15T07:39:30.280Z,10.30
2023-11-15T07:41:57.090Z,10.10
2023-11-15T07:44:26.889Z,10.10
2023-11-15T07:46:56.119Z,10.20
2023-11-15T07:49:24.998Z,10.20
2023-11-15T07:51:52.321Z,10.30
2023-11-15T07:54:20.493Z,10.40
2023-11-15T07:56:47.967Z,10.30
2023-11-15T07:59:15.763Z,10.40
2023-11-15T08:01:46.912Z,10.60
2023-11-15T08:04:15.858Z,10.50
2023-11-15T08:06:43.572Z,10.50
2023-11-15T08:09:24.901Z,10.50
2023-11-15T08:11:56.757Z,10.60
2023-11-15T08:14:24.043Z,10.70
2023-11-15T08:16:51.232Z,10.80
2023-11-15T08:19:21.896Z,10.80
2023-11-15T08:21:49.297Z,10.70
2023-11-15T08:24:22.760Z,10.70
2023-11-15T08:26:56.694Z,10.90
2023-11-15T08:29:23.948Z,11.10
2023-11-15T08:31:51.282Z,11.20
2023-11-15T08:34:23.134Z,11.20
2023-11-15T08:36:51.005Z,11.10
2023-11-15T08:39:18.186Z,11.10
2023-11-15T08:41:47.234Z,11.10
2023-11-15T08:44:14.230Z,11.20
2023-11-15T08:46:46.070Z,11.20
2023-11-15T08:49:14.114Z,11.40
2023-11-15T08:51:42.113Z,11.70
2023-11-15T08:54:09.723Z,11.80
2023-11-15T08:56:37.513Z,11.80
2023-11-15T08:59:05.121Z,11.90
2023-11-15T09:01:31.973Z,11.60
2023-11-15T09:04:00.897Z,11.60
2023-11-15T09:06:28.134Z,11.50
2023-11-15T09:08:55.942Z,11.50
2023-11-15T09:11:22.677Z,11.40
2023-11-15T09:13:49.409Z,11.40
2023-11-15T09:16:17.614Z,11.30
2023-11-15T09:18:45.227Z,11.30
2023-11-15T09:21:12.373Z,11.40
2023-11-15T09:23:40.107Z,11.40
2023-11-15T09:26:10.496Z,11.10
2023-11-15T09:28:37.213Z,11.20
2023-11-15T09:31:06.469Z,11.40
2023-11-15T09:33:33.288Z,11.60
2023-11-15T09:36:01.717Z,11.80
2023-11-15T09:38:28.913Z,11.80
2023-11-15T09:40:56.099Z,11.60
2023-11-15T09:43:22.805Z,11.60
2023-11-15T09:45:49.865Z,11.60
2023-11-15T09:48:16.884Z,11.60
2023-11-15T09:50:49.844Z,11.70
2023-11-15T09:53:19.211Z,11.90
2023-11-15T09:55:48.891Z,11.90
2023-11-15T09:58:15.787Z,12.00
2023-11-15T10:00:42.710Z,12.00
2023-11-15T10:03:09.661Z,11.60
2023-11-15T10:05:36.493Z,11.70
2023-11-15T10:08:16.294Z,11.80
2023-11-15T10:10:45.804Z,11.70
2023-11-15T10:13:17.193Z,11.50
2023-11-15T10:15:46.375Z,11.30
2023-11-15T10:18:19.454Z,11.40
2023-11-15T10:20:46.401Z,11.40
2023-11-15T10:23:14.491Z,11.30
2023-11-15T10:25:52.125Z,11.20
2023-11-15T10:28:22.363Z,11.10
2023-11-15T10:31:06.107Z,11.10
2023-11-15T10:33:35.568Z,11.10
2023-11-15T10:36:19.266Z,11.20
2023-11-15T10:38:57.178Z,11.30
2023-11-15T10:41:26.180Z,11.20
2023-11-15T10:43:55.392Z,11.00
2023-11-15T10:46:30.673Z,10.90
2023-11-15T10:48:59.027Z,10.70
2023-11-15T10:51:36.503Z,10.70
2023-11-15T10:54:05.824Z,10.50
2023-11-15T10:56:34.157Z,10.40
2023-11-15T10:59:05.362Z,10.40
2023-11-15T11:01:35.223Z,10.40
2023-11-15T11:04:08.694Z,10.40
2023-11-15T11:06:51.356Z,10.60
2023-11-15T11:09:22.703Z,10.50
2023-11-15T11:12:26.403Z,10.60
2023-11-15T11:15:20.398Z,10.80
2023-11-15T11:17:49.560Z,10.70
2023-11-15T11:20:27.737Z,10.60
2023-11-15T11:23:22.062Z,10.60
2023-11-15T11:25:53.400Z,10.70
2023-11-15T11:28:22.673Z,10.70
2023-11-15T11:31:19.018Z,10.70
2023-11-15T11:34:11.787Z,10.60
2023-11-15T11:36:45.366Z,10.70
2023-11-15T11:39:13.829Z,10.60
2023-11-15T11:41:40.979Z,10.60
2023-11-15T11:44:08.504Z,10.70
2023-11-15T11:46:35.262Z,10.50
2023-11-15T11:49:02.067Z,10.60
2023-11-15T11:51:28.939Z,10.30
2023-11-15T11:53:56.748Z,10.40
2023-11-15T11:56:24.609Z,10.40
2023-11-15T11:58:51.419Z,10.40
2023-11-15T12:01:18.358Z,10.40
2023-11-15T12:03:50.034Z,10.40
2023-11-15T12:06:18.906Z,10.50
2023-11-15T12:08:53.842Z,10.50
2023-11-15T12:11:24.392Z,10.50
2023-11-15T12:13:53.478Z,10.50
2023-11-15T12:16:20.400Z,10.60
2023-11-15T12:19:10.964Z,10.70
2023-11-15T12:21:43.658Z,11.00
2023-11-15T12:24:16.004Z,11.30
2023-11-15T12:26:47.819Z,11.40
2023-11-15T12:29:21.997Z,11.50
2023-11-15T12:31:50.612Z,11.60
2023-11-15T12:34:17.676Z,11.50
2023-11-15T12:36:45.657Z,11.30
2023-11-15T12:39:17.395Z,11.20
2023-11-15T12:41:48.487Z,11.50
2023-11-15T12:44:16.209Z,11.70
2023-11-15T12:46:44.543Z,11.80
2023-11-15T12:49:15.724Z,12.10
2023-11-15T12:51:49.488Z,12.00
2023-11-15T12:54:16.964Z,11.90
2023-11-15T12:56:43.926Z,11.90
2023-11-15T12:59:15.418Z,12.10
2023-11-15T13:01:46.953Z,12.00
2023-11-15T13:04:14.374Z,12.10
2023-11-15T13:06:41.375Z,11.90
2023-11-15T13:09:13.216Z,11.60
2023-11-15T13:11:42.460Z,11.60
2023-11-15T13:14:09.514Z,11.80
2023-11-15T13:16:36.749Z,11.80
2023-11-15T13:19:04.077Z,11.80
2023-11-15T13:21:30.958Z,11.70
2023-11-15T13:23:57.735Z,11.70
2023-11-15T13:26:25.649Z,11.90
2023-11-15T13:28:54.199Z,11.90
2023-11-15T13:31:24.492Z,11.90
2023-11-15T13:33:54.187Z,12.00
2023-11-15T13:36:21.610Z,12.00
2023-11-15T13:38:48.608Z,11.80
2023-11-15T13:41:18.590Z,11.80
2023-11-15T13:43:48.845Z,11.70
2023-11-15T13:46:15.867Z,11.70
2023-11-15T13:48:43.158Z,11.60
2023-11-15T13:51:12.359Z,11.20
2023-11-15T13:53:40.515Z,11.10
2023-11-15T13:56:10.715Z,11.20
2023-11-15T13:58:37.779Z,11.20
2023-11-15T14:01:06.268Z,11.20
2023-11-15T14:03:33.783Z,11.10
2023-11-15T14:06:04.157Z,11.10
2023-11-15T14:08:51.867Z,11.20
2023-11-15T14:11:27.552Z,11.30
2023-11-15T14:13:54.336Z,11.30
2023-11-15T14:16:21.996Z,11.50
2023-11-15T14:18:50.859Z,11.60
2023-11-15T14:21:18.132Z,11.70
2023-11-15T14:23:45.041Z,11.70
2023-11-15T14:26:14.859Z,11.60
2023-11-15T14:28:44.272Z,11.40
2023-11-15T14:31:11.020Z,11.40
2023-11-15T14:33:39.972Z,11.30
2023-11-15T14:36:07.945Z,11.20
2023-11-15T14:38:34.827Z,11.20
2023-11-15T14:41:02.088Z,11.20
2023-11-15T14:43:29.475Z,11.10
2023-11-15T14:45:56.605Z,11.10
2023-11-15T14:48:23.448Z,11.10
2023-11-15T14:50:51.953Z,11.00
2023-11-15T14:53:24.489Z,11.10
2023-11-15T14:55:51.959Z,11.00
2023-11-15T14:58:19.741Z,10.90
2023-11-15T15:00:47.576Z,10.80
2023-11-15T15:03:15.547Z,10.70
2023-11-15T15:05:42.534Z,10.60
2023-11-15T15:08:09.476Z,10.70
2023-11-15T15:10:39.240Z,10.70
2023-11-15T15:13:09.715Z,10.60
2023-11-15T15:15:37.273Z,10.60
2023-11-15T15:18:13.210Z,10.60
2023-11-15T15:20:43.892Z,10.70
2023-11-15T15:23:11.046Z,10.60
2023-11-15T15:25:41.923Z,10.40
2023-11-15T15:28:10.220Z,10.40
2023-11-15T15:30:37.951Z,10.30
2023-11-15T15:33:07.612Z,10.30
2023-11-15T15:35:34.702Z,10.20
2023-11-15T15:38:01.445Z,10.30
2023-11-15T15:40:31.130Z,10.20
2023-11-15T15:42:58.034Z,10.10
2023-11-15T15:45:27.517Z,10.00
2023-11-15T15:47:54.781Z,9.90
2023-11-15T15:50:21.745Z,9.80
2023-11-15T15:52:48.601Z,9.80
2023-11-15T15:55:15.495Z,9.70
2023-11-15T15:57:42.581Z,9.70
2023-11-15T16:00:11.129Z,9.70
2023-11-15T16:02:38.039Z,9.60
2023-11-15T16:05:08.959Z,9.70
2023-11-15T16:07:36.172Z,9.60
2023-11-15T16:10:05.097Z,9.70
2023-11-15T16:12:32.634Z,9.70
2023-11-15T16:14:59.945Z,9.70
2023-11-15T16:17:27.336Z,9.90
2023-11-15T16:19:58.096Z,9.90
2023-11-15T16:22:26.138Z,10.00
2023-11-15T16:24:55.168Z,10.00
2023-11-15T16:27:27.927Z,10.00
2023-11-15T16:29:59.534Z,10.00
2023-11-15T16:32:28.956Z,10.00
2023-11-15T16:34:57.397Z,10.10
2023-11-15T16:37:25.787Z,10.10
2023-11-15T16:39:53.445Z,10.00
2023-11-15T16:42:21.465Z,9.90
2023-11-15T16:44:48.739Z,10.00
2023-11-15T16:47:15.581Z,9.90
2023-11-15T16:49:42.287Z,10.00
2023-11-15T16:52:11.063Z,10.10
2023-11-15T16:54:38.136Z,10.10
2023-11-15T16:57:06.081Z,10.10
2023-11-15T16:59:33.651Z,10.20
2023-11-15T17:02:00.730Z,10.20
2023-11-15T17:04:27.604Z,10.10
2023-11-15T17:06:56.251Z,10.10
2023-11-15T17:09:24.032Z,10.10
2023-11-15T17:11:51.486Z,10.20
2023-11-15T17:14:21.219Z,10.00
2023-11-15T17:16:49.859Z,10.00
2023-11-15T17:19:18.291Z,10.00
2023-11-15T17:21:47.642Z,10.10
2023-11-15T17:24:20.017Z,10.10
2023-11-15T17:26:47.736Z,10.10
2023-11-15T17:29:17.289Z,10.00
2023-11-15T17:31:45.095Z,9.90
2023-11-15T17:34:12.666Z,9.90
2023-11-15T17:36:41.698Z,9.90
2023-11-15T17:39:09.687Z,9.80
2023-11-15T17:41:36.504Z,9.80
2023-11-15T17:44:08.248Z,9.90
2023-11-15T17:46:41.105Z,9.80
2023-11-15T17:49:08.193Z,9.70
2023-11-15T17:51:34.915Z,9.70
2023-11-15T17:54:01.687Z,9.70
2023-11-15T17:56:28.988Z,9.80
2023-11-15T17:58:56.467Z,9.90
2023-11-15T18:01:24.468Z,9.80
2023-11-15T18:03:51.233Z,9.80
2023-11-15T18:06:23.230Z,9.70
2023-11-15T18:08:50.181Z,9.70
2023-11-15T18:11:17.897Z,9.80
2023-11-15T18:13:44.663Z,9.70
2023-11-15T18:16:12.015Z,9.70
2023-11-15T18:18:39.135Z,9.70
2023-11-15T18:21:06.710Z,9.80
2023-11-15T18:23:33.587Z,9.80
2023-11-15T18:26:00.289Z,9.80
2023-11-15T18:28:27.249Z,9.80
2023-11-15T18:30:55.064Z,9.70
2023-11-15T18:33:22.078Z,9.80
2023-11-15T18:35:49.579Z,9.90
2023-11-15T18:38:16.669Z,9.90
2023-11-15T18:40:45.648Z,9.90
2023-11-15T18:43:13.777Z,9.90
2023-11-15T18:45:40.603Z,9.90
2023-11-15T18:48:07.770Z,9.80
2023-11-15T18:50:34.681Z,9.90
2023-11-15T18:53:04.054Z,9.90
2023-11-15T18:55:32.921Z,9.90
2023-11-15T18:57:59.772Z,9.90
2023-11-15T19:00:27.335Z,9.80
2023-11-15T19:02:55.523Z,9.90
2023-11-15T19:05:23.643Z,10.10
2023-11-15T19:07:51.212Z,10.00
2023-11-15T19:10:18.305Z,10.00
2023-11-15T19:12:46.480Z,9.90
2023-11-15T19:15:13.490Z,10.10
2023-11-15T19:17:42.106Z,10.10
2023-11-15T19:20:10.938Z,10.20
2023-11-15T19:22:38.426Z,10.20
2023-11-15T19:25:06.254Z,10.10
2023-11-15T19:27:35.411Z,10.10
2023-11-15T19:30:02.785Z,10.10
2023-11-15T19:32:29.739Z,10.00
2023-11-15T19:34:56.809Z,10.00
2023-11-15T19:37:24.808Z,10.00
2023-11-15T19:39:51.503Z,10.00
2023-11-15T19:42:18.326Z,9.90
2023-11-15T19:44:45.064Z,10.00
2023-11-15T19:47:11.782Z,9.90
2023-11-15T19:49:38.543Z,10.00
2023-11-15T19:52:09.458Z,9.90
2023-11-15T19:54:36.825Z,9.80
2023-11-15T19:57:05.911Z,9.90
2023-11-15T19:59:34.438Z,9.90
2023-11-15T20:02:02.178Z,9.70
2023-11-15T20:04:32.586Z,9.60
2023-11-15T20:07:00.622Z,9.70
2023-11-15T20:09:31.294Z,9.70
2023-11-15T20:11:58.432Z,9.70
2023-11-15T20:14:25.608Z,9.70
2023-11-15T20:16:54.159Z,9.80
2023-11-15T20:19:21.594Z,9.60
2023-11-15T20:21:49.915Z,9.60
2023-11-15T20:24:18.267Z,9.60
2023-11-15T20:26:44.973Z,9.60
2023-11-15T20:29:12.159Z,9.40
2023-11-15T20:31:41.806Z,9.40
2023-11-15T20:34:08.909Z,9.40
2023-11-15T20:36:37.347Z,9.40
2023-11-15T20:39:14.142Z,9.30
2023-11-15T20:41:48.056Z,9.40
2023-11-15T20:44:15.262Z,9.40
2023-11-15T20:46:41.979Z,9.40
2023-11-15T20:49:08.848Z,9.50
2023-11-15T20:51:35.763Z,9.50
2023-11-15T20:54:02.558Z,9.50
2023-11-15T20:56:29.272Z,9.40
2023-11-15T20:58:56.206Z,9.40
2023-11-15T21:01:23.005Z,9.40
2023-11-15T21:03:52.053Z,9.40
2023-11-15T21:06:19.821Z,9.40
2023-11-15T21:08:48.377Z,9.40
2023-11-15T21:11:15.676Z,9.40
2023-11-15T21:13:43.230Z,9.40
2023-11-15T21:16:12.654Z,9.40
2023-11-15T21:18:41.600Z,9.40
2023-11-15T21:21:09.974Z,9.40
2023-11-15T21:23:36.715Z,9.50
2023-11-15T21:26:07.130Z,9.40
2023-11-15T21:28:34.868Z,9.40
2023-11-15T21:31:01.674Z,9.40
2023-11-15T21:33:28.507Z,9.40
2023-11-15T21:35:55.345Z,9.50
2023-11-15T21:38:22.883Z,9.40
2023-11-15T21:40:50.112Z,9.50
2023-11-15T21:43:18.512Z,9.60
2023-11-15T21:45:45.245Z,9.60
2023-11-15T21:48:12.127Z,9.60
2023-11-15T21:50:38.921Z,9.70
2023-11-15T21:53:05.657Z,9.70
2023-11-15T21:55:32.395Z,9.60
2023-11-15T21:58:02.617Z,9.60
2023-11-15T22:00:30.038Z,9.60
2023-11-15T22:02:57.943Z,9.40
2023-11-15T22:05:24.641Z,9.40
2023-11-15T22:07:51.488Z,9.50
2023-11-15T22:10:18.589Z,9.40
2023-11-15T22:12:47.224Z,9.40
2023-11-15T22:15:14.506Z,9.50
2023-11-15T22:17:41.530Z,9.60
2023-11-15T22:20:09.231Z,9.70
2023-11-15T22:22:36.840Z,9.70
2023-11-15T22:25:04.261Z,9.70
2023-11-15T22:27:31.117Z,9.60
2023-11-15T22:29:57.949Z,9.50
2023-11-15T22:32:27.794Z,9.50
2023-11-15T22:34:55.054Z,9.50
2023-11-15T22:37:22.146Z,9.50
2023-11-15T22:39:49.072Z,9.60
2023-11-15T22:42:16.291Z,9.50
2023-11-15T22:44:43.145Z,9.60
2023-11-15T22:47:10.954Z,9.60
2023-11-15T22:49:37.684Z,9.60
2023-11-15T22:52:04.575Z,9.60
2023-11-15T22:54:31.406Z,9.50
2023-11-15T22:56:58.556Z,9.40
2023-11-15T22:59:25.301Z,9.30
2023-11-15T23:01:52.004Z,9.30
2023-11-15T23:04:19.113Z,9.30
2023-11-15T23:06:46.208Z,9.40
2023-11-15T23:09:15.719Z,9.50
2023-11-15T23:11:42.562Z,9.30
2023-11-15T23:14:09.768Z,9.40
2023-11-15T23:16:37.023Z,9.50
2023-11-15T23:19:04.319Z,9.50
2023-11-15T23:21:32.122Z,9.40
2023-11-15T23:23:58.902Z,9.30
2023-11-15T23:26:25.705Z,9.10
2023-11-15T23:28:53.378Z,9.10
2023-11-15T23:31:21.582Z,9.20
2023-11-15T23:33:51.923Z,9.20
2023-11-15T23:36:19.024Z,9.20
2023-11-15T23:38:45.742Z,9.30
2023-11-15T23:41:12.580Z,9.30
2023-11-15T23:43:39.395Z,9.40
2023-11-15T23:46:06.607Z,9.50
2023-11-15T23:48:33.767Z,9.40
2023-11-15T23:51:00.681Z,9.30
2023-11-15T23:53:29.785Z,9.40
2023-11-15T23:55:56.545Z,9.50
2023-11-15T23:58:23.546Z,9.60
